createdAt,value
2018-10-02T00:00:15.269Z,101894.72
2018-10-02T00:01:19.959Z,101898.11
2018-10-02T00:02:23.989Z,101902.48
2018-10-02T00:03:28.182Z,101892.14
2018-10-02T00:04:33.100Z,101887.77
2018-10-02T00:05:38.115Z,101893.27
2018-10-02T00:06:42.952Z,101896.39
2018-10-02T00:07:47.573Z,101898.58
2018-10-02T00:08:54.220Z,101891.00
2018-10-02T00:09:58.252Z,101893.55
2018-10-02T00:11:07.870Z,101888.34
2018-10-02T00:12:17.422Z,101892.14
2018-10-02T00:13:26.736Z,101891.67
2018-10-02T00:14:31.522Z,101893.47
2018-10-02T00:15:35.701Z,101882.92
2018-10-02T00:16:39.793Z,101885.23
2018-10-02T00:17:43.867Z,101887.87
2018-10-02T00:18:48.040Z,101894.98
2018-10-02T00:19:52.187Z,101891.95
2018-10-02T00:20:56.214Z,101888.23
2018-10-02T00:22:00.421Z,101882.38
2018-10-02T00:23:05.552Z,101882.84
2018-10-02T00:24:09.777Z,101887.09
2018-10-02T00:25:13.972Z,101888.43
2018-10-02T00:26:18.068Z,101888.90
2018-10-02T00:27:22.162Z,101883.70
2018-10-02T00:28:26.290Z,101890.03
2018-10-02T00:29:32.387Z,101881.71
2018-10-02T00:30:36.491Z,101882.27
2018-10-02T00:31:41.201Z,101888.44
2018-10-02T00:32:45.252Z,101884.09
2018-10-02T00:33:49.801Z,101890.23
2018-10-02T00:34:53.927Z,101882.77
2018-10-02T00:35:58.012Z,101883.12
2018-10-02T00:37:02.747Z,101884.84
2018-10-02T00:38:08.108Z,101878.20
2018-10-02T00:39:12.287Z,101872.50
2018-10-02T00:40:16.824Z,101876.02
2018-10-02T00:41:21.110Z,101864.93
2018-10-02T00:42:28.990Z,101850.72
2018-10-02T00:43:33.453Z,101861.89
2018-10-02T00:44:37.585Z,101862.86
2018-10-02T00:45:41.623Z,101859.34
2018-10-02T00:46:45.830Z,101848.62
2018-10-02T00:47:49.959Z,101859.16
2018-10-02T00:48:54.100Z,101859.55
2018-10-02T00:49:58.131Z,101861.34
2018-10-02T00:51:02.375Z,101862.75
2018-10-02T00:52:07.295Z,101859.74
2018-10-02T00:53:11.491Z,101857.55
2018-10-02T00:54:15.582Z,101858.11
2018-10-02T00:55:19.627Z,101859.44
2018-10-02T00:56:23.785Z,101855.45
2018-10-02T00:57:27.916Z,101859.44
2018-10-02T00:58:32.140Z,101860.41
2018-10-02T01:00:46.436Z,101860.41
2018-10-02T01:01:51.541Z,101862.95
2018-10-02T01:02:56.197Z,101858.50
2018-10-02T01:04:00.326Z,101860.95
2018-10-02T01:05:04.520Z,101864.94
2018-10-02T01:06:09.449Z,101857.36
2018-10-02T01:07:14.421Z,101859.55
2018-10-02T01:08:18.464Z,101847.88
2018-10-02T01:09:22.698Z,101863.02
2018-10-02T01:10:26.820Z,101865.20
2018-10-02T01:11:31.466Z,101863.88
2018-10-02T01:12:35.587Z,101860.02
2018-10-02T01:13:44.074Z,101856.39
2018-10-02T01:14:48.843Z,101856.03
2018-10-02T01:15:53.439Z,101856.03
2018-10-02T01:16:59.117Z,101854.70
2018-10-02T01:18:04.058Z,101857.36
2018-10-02T01:19:08.148Z,101856.97
2018-10-02T01:20:12.294Z,101851.66
2018-10-02T01:21:16.463Z,101851.66
2018-10-02T01:22:20.623Z,101863.02
2018-10-02T01:23:24.683Z,101862.00
2018-10-02T01:24:28.810Z,101858.49
2018-10-02T01:25:33.415Z,101854.23
2018-10-02T01:26:37.829Z,101862.00
2018-10-02T01:27:41.924Z,101865.13
2018-10-02T01:28:46.002Z,101859.81
2018-10-02T01:29:50.277Z,101854.04
2018-10-02T01:30:55.185Z,101842.56
2018-10-02T01:32:06.008Z,101846.08
2018-10-02T01:33:10.307Z,101840.37
2018-10-02T01:34:15.243Z,101847.48
2018-10-02T01:35:20.154Z,101847.86
2018-10-02T01:36:24.211Z,101849.66
2018-10-02T01:37:28.350Z,101852.78
2018-10-02T01:38:32.364Z,101853.38
2018-10-02T01:39:36.496Z,101855.17
2018-10-02T01:40:40.740Z,101845.88
2018-10-02T01:41:44.830Z,101847.00
2018-10-02T01:42:49.598Z,101844.73
2018-10-02T01:43:54.786Z,101845.95
2018-10-02T01:45:00.064Z,101842.91
2018-10-02T01:46:04.523Z,101838.19
2018-10-02T01:47:08.578Z,101834.13
2018-10-02T01:48:12.688Z,101833.62
2018-10-02T01:49:17.132Z,101838.38
2018-10-02T01:50:21.324Z,101832.59
2018-10-02T01:51:25.399Z,101837.05
2018-10-02T01:52:30.184Z,101827.64
2018-10-02T01:53:34.557Z,101824.13
2018-10-02T01:54:38.545Z,101824.24
2018-10-02T01:55:43.438Z,101819.02
2018-10-02T01:56:47.513Z,101818.66
2018-10-02T01:57:53.425Z,101828.89
2018-10-02T01:58:57.557Z,101829.48
2018-10-02T02:00:03.202Z,101825.70
2018-10-02T02:01:07.338Z,101827.49
2018-10-02T02:02:11.369Z,101818.09
2018-10-02T02:03:15.567Z,101822.66
2018-10-02T02:04:19.681Z,101819.53
2018-10-02T02:05:23.835Z,101820.74
2018-10-02T02:06:27.889Z,101806.45
2018-10-02T02:07:33.665Z,101814.88
2018-10-02T02:08:37.806Z,101808.59
2018-10-02T02:09:42.606Z,101805.00
2018-10-02T02:10:46.696Z,101809.37
2018-10-02T02:11:50.927Z,101806.72
2018-10-02T02:12:55.105Z,101804.06
2018-10-02T02:13:59.843Z,101801.77
2018-10-02T02:15:05.267Z,101795.13
2018-10-02T02:16:10.168Z,101792.00
2018-10-02T02:17:15.203Z,101796.45
2018-10-02T02:18:19.537Z,101783.58
2018-10-02T02:19:23.626Z,101794.38
2018-10-02T02:20:27.778Z,101792.31
2018-10-02T02:21:38.510Z,101790.98
2018-10-02T02:22:42.912Z,101790.13
2018-10-02T02:23:47.767Z,101793.64
2018-10-02T02:24:52.814Z,101787.01
2018-10-02T02:25:56.848Z,101789.66
2018-10-02T02:27:01.720Z,101781.31
2018-10-02T02:28:06.036Z,101787.75
2018-10-02T02:29:11.418Z,101786.03
2018-10-02T02:30:15.604Z,101791.73
2018-10-02T02:31:19.650Z,101790.32
2018-10-02T02:32:23.766Z,101783.18
2018-10-02T02:33:27.810Z,101782.23
2018-10-02T02:34:32.692Z,101782.83
2018-10-02T02:35:37.510Z,101778.84
2018-10-02T02:36:41.663Z,101777.52
2018-10-02T02:37:45.727Z,101784.15
2018-10-02T02:38:50.657Z,101771.64
2018-10-02T02:39:54.780Z,101777.52
2018-10-02T02:40:59.520Z,101774.48
2018-10-02T02:42:03.711Z,101772.20
2018-10-02T02:43:07.809Z,101771.23
2018-10-02T02:44:12.857Z,101769.91
2018-10-02T02:45:17.573Z,101767.64
2018-10-02T02:46:22.537Z,101767.64
2018-10-02T02:47:32.046Z,101760.61
2018-10-02T02:48:41.423Z,101761.94
2018-10-02T02:49:50.925Z,101761.00
2018-10-02T02:51:00.534Z,101770.29
2018-10-02T02:52:04.589Z,101757.95
2018-10-02T02:53:13.888Z,101761.59
2018-10-02T02:54:18.743Z,101759.88
2018-10-02T02:55:22.872Z,101757.22
2018-10-02T02:56:29.241Z,101758.16
2018-10-02T02:57:33.667Z,101758.94
2018-10-02T02:58:37.706Z,101754.95
2018-10-02T02:59:43.511Z,101755.89
2018-10-02T03:00:47.682Z,101759.48
2018-10-02T03:01:52.089Z,101760.46
2018-10-02T03:02:56.825Z,101756.83
2018-10-02T03:04:00.891Z,101754.18
2018-10-02T03:05:05.351Z,101753.23
2018-10-02T03:06:09.790Z,101745.27
2018-10-02T03:07:13.904Z,101745.66
2018-10-02T03:08:18.829Z,101746.13
2018-10-02T03:09:23.646Z,101751.05
2018-10-02T03:10:27.857Z,101746.22
2018-10-02T03:11:32.569Z,101741.68
2018-10-02T03:12:38.303Z,101743.86
2018-10-02T03:13:42.566Z,101741.68
2018-10-02T03:14:46.684Z,101735.98
2018-10-02T03:15:52.007Z,101736.37
2018-10-02T03:16:56.192Z,101740.35
2018-10-02T03:18:00.215Z,101741.20
2018-10-02T03:19:04.338Z,101737.31
2018-10-02T03:20:09.344Z,101734.66
2018-10-02T03:21:13.535Z,101724.83
2018-10-02T03:22:18.724Z,101737.70
2018-10-02T03:23:23.102Z,101729.73
2018-10-02T03:24:27.187Z,101720.64
2018-10-02T03:25:31.357Z,101727.81
2018-10-02T03:26:35.556Z,101724.30
2018-10-02T03:27:39.699Z,101712.77
2018-10-02T03:28:43.833Z,101723.83
2018-10-02T03:29:48.825Z,101730.38
2018-10-02T03:30:52.888Z,101729.05
2018-10-02T03:31:57.130Z,101735.69
2018-10-02T03:33:01.265Z,101737.02
2018-10-02T03:34:05.444Z,101734.84
2018-10-02T03:35:09.630Z,101724.30
2018-10-02T03:36:14.521Z,101713.48
2018-10-02T03:37:18.860Z,101711.59
2018-10-02T03:38:23.061Z,101704.96
2018-10-02T03:39:27.238Z,101699.17
2018-10-02T03:40:31.844Z,101699.53
2018-10-02T03:41:36.012Z,101706.55
2018-10-02T03:42:40.148Z,101709.59
2018-10-02T03:43:44.374Z,101712.98
2018-10-02T03:44:48.464Z,101706.55
2018-10-02T03:45:52.811Z,101716.76
2018-10-02T03:46:57.396Z,101717.70
2018-10-02T03:48:02.099Z,101720.27
2018-10-02T03:49:06.442Z,101718.09
2018-10-02T03:50:10.576Z,101713.25
2018-10-02T03:51:14.774Z,101712.56
2018-10-02T03:52:18.899Z,101698.37
2018-10-02T03:53:23.044Z,101688.28
2018-10-02T03:54:28.340Z,101693.45
2018-10-02T03:55:32.350Z,101688.97
2018-10-02T03:56:37.048Z,101683.19
2018-10-02T03:57:42.043Z,101685.37
2018-10-02T03:58:47.026Z,101689.47
2018-10-02T03:59:51.466Z,101678.84
2018-10-02T04:00:55.609Z,101674.92
2018-10-02T04:01:59.645Z,101677.58
2018-10-02T04:03:04.863Z,101678.99
2018-10-02T04:04:08.980Z,101675.52
2018-10-02T04:05:13.170Z,101677.87
2018-10-02T04:06:17.433Z,101676.55
2018-10-02T04:07:21.768Z,101677.31
2018-10-02T04:08:25.783Z,101674.19
2018-10-02T04:09:30.853Z,101666.31
2018-10-02T04:10:35.568Z,101670.30
2018-10-02T04:11:39.884Z,101664.98
2018-10-02T04:12:43.916Z,101670.67
2018-10-02T04:13:48.006Z,101666.69
2018-10-02T04:14:53.803Z,101663.06
2018-10-02T04:15:59.250Z,101662.23
2018-10-02T04:17:04.733Z,101662.71
2018-10-02T04:18:09.453Z,101664.39
2018-10-02T04:19:14.670Z,101668.02
2018-10-02T04:20:18.859Z,101654.27
2018-10-02T04:21:28.272Z,101653.30
2018-10-02T04:22:32.827Z,101653.42
2018-10-02T04:23:36.931Z,101651.06
2018-10-02T04:24:41.186Z,101649.91
2018-10-02T04:25:45.870Z,101649.05
2018-10-02T04:26:50.628Z,101649.78
2018-10-02T04:27:54.831Z,101648.45
2018-10-02T04:28:59.119Z,101645.45
2018-10-02T04:30:03.277Z,101641.29
2018-10-02T04:31:07.783Z,101642.14
2018-10-02T04:32:11.900Z,101638.16
2018-10-02T04:33:16.075Z,101641.67
2018-10-02T04:34:20.147Z,101643.00
2018-10-02T04:35:24.899Z,101628.40
2018-10-02T04:36:29.753Z,101624.03
2018-10-02T04:37:33.997Z,101621.25
2018-10-02T04:38:38.007Z,101617.27
2018-10-02T04:39:42.128Z,101616.80
2018-10-02T04:40:46.898Z,101616.80
2018-10-02T04:41:51.199Z,101611.95
2018-10-02T04:42:57.661Z,101607.50
2018-10-02T04:44:01.839Z,101602.11
2018-10-02T04:45:06.754Z,101609.42
2018-10-02T04:46:10.932Z,101605.83
2018-10-02T04:47:15.690Z,101600.86
2018-10-02T04:48:19.939Z,101605.83
2018-10-02T04:49:24.097Z,101607.16
2018-10-02T04:50:28.329Z,101611.87
2018-10-02T04:51:32.442Z,101611.87
2018-10-02T04:52:40.798Z,101608.48
2018-10-02T04:53:45.700Z,101604.97
2018-10-02T04:54:51.008Z,101604.84
2018-10-02T04:55:56.475Z,101603.05
2018-10-02T04:57:00.640Z,101607.97
2018-10-02T04:58:04.766Z,101605.83
2018-10-02T04:59:08.937Z,101597.66
2018-10-02T05:00:13.070Z,101606.56
2018-10-02T05:01:17.218Z,101604.28
2018-10-02T05:02:21.417Z,101602.31
2018-10-02T05:03:25.501Z,101610.59
2018-10-02T05:04:29.672Z,101616.66
2018-10-02T05:05:33.771Z,101612.17
2018-10-02T05:06:40.136Z,101608.19
2018-10-02T05:07:44.934Z,101610.84
2018-10-02T05:08:49.003Z,101611.99
2018-10-02T05:09:53.072Z,101609.22
2018-10-02T05:10:57.279Z,101611.78
2018-10-02T05:12:01.427Z,101604.76
2018-10-02T05:13:06.237Z,101602.48
2018-10-02T05:14:10.602Z,101611.27
2018-10-02T05:15:14.635Z,101607.29
2018-10-02T05:16:19.392Z,101600.17
2018-10-02T05:17:24.840Z,101595.34
2018-10-02T05:18:28.962Z,101589.55
2018-10-02T05:19:32.976Z,101592.11
2018-10-02T05:20:37.276Z,101592.38
2018-10-02T05:21:41.340Z,101584.41
2018-10-02T05:22:45.510Z,101588.86
2018-10-02T05:23:49.515Z,101595.41
2018-10-02T05:24:54.581Z,101595.41
2018-10-02T05:25:59.309Z,101599.39
2018-10-02T05:27:03.435Z,101595.41
2018-10-02T05:28:08.395Z,101602.05
2018-10-02T05:29:12.843Z,101596.36
2018-10-02T05:30:17.274Z,101600.34
2018-10-02T05:31:21.353Z,101595.03
2018-10-02T05:32:25.610Z,101593.61
2018-10-02T05:33:29.797Z,101592.16
2018-10-02T05:34:33.936Z,101589.97
2018-10-02T05:35:38.219Z,101595.58
2018-10-02T05:36:42.224Z,101594.12
2018-10-02T05:37:46.742Z,101584.73
2018-10-02T05:38:51.924Z,101585.08
2018-10-02T05:39:56.031Z,101580.15
2018-10-02T05:41:00.201Z,101585.72
2018-10-02T05:42:05.438Z,101576.16
2018-10-02T05:43:09.543Z,101569.05
2018-10-02T05:44:13.731Z,101568.20
2018-10-02T05:45:18.570Z,101575.31
2018-10-02T05:46:22.986Z,101577.11
2018-10-02T05:47:27.134Z,101578.44
2018-10-02T05:48:31.374Z,101582.80
2018-10-02T05:49:35.431Z,101581.70
2018-10-02T05:50:40.134Z,101578.09
2018-10-02T05:51:44.166Z,101583.83
2018-10-02T05:52:48.596Z,101580.66
2018-10-02T05:53:53.555Z,101572.13
2018-10-02T05:54:59.679Z,101569.09
2018-10-02T05:56:03.953Z,101572.59
2018-10-02T05:57:08.202Z,101569.47
2018-10-02T05:58:12.527Z,101569.94
2018-10-02T05:59:17.369Z,101575.63
2018-10-02T06:00:21.425Z,101561.84
2018-10-02T06:01:25.497Z,101560.52
2018-10-02T06:02:31.207Z,101555.20
2018-10-02T06:03:35.939Z,101557.38
2018-10-02T06:04:40.597Z,101562.70
2018-10-02T06:05:45.259Z,101557.38
2018-10-02T06:06:49.470Z,101556.44
2018-10-02T06:07:53.545Z,101558.62
2018-10-02T06:08:57.700Z,101555.58
2018-10-02T06:10:02.735Z,101544.22
2018-10-02T06:11:07.070Z,101547.52
2018-10-02T06:12:11.274Z,101545.20
2018-10-02T06:13:15.396Z,101546.06
2018-10-02T06:14:19.474Z,101535.27
2018-10-02T06:15:23.630Z,101543.41
2018-10-02T06:16:27.760Z,101542.45
2018-10-02T06:17:32.926Z,101547.77
2018-10-02T06:18:37.113Z,101548.63
2018-10-02T06:19:41.843Z,101544.26
2018-10-02T06:20:46.153Z,101542.83
2018-10-02T06:21:50.400Z,101534.01
2018-10-02T06:22:54.922Z,101541.50
2018-10-02T06:23:59.555Z,101541.50
2018-10-02T06:28:20.623Z,101545.33
2018-10-02T06:29:24.664Z,101549.88
2018-10-02T06:30:29.411Z,101553.14
2018-10-02T06:31:33.670Z,101542.58
2018-10-02T06:32:37.969Z,101548.17
2018-10-02T06:33:42.123Z,101547.54
2018-10-02T06:34:46.322Z,101538.81
2018-10-02T06:35:50.946Z,101542.92
2018-10-02T06:36:58.360Z,101553.64
2018-10-02T06:38:02.627Z,101548.33
2018-10-02T06:39:07.675Z,101545.89
2018-10-02T06:40:12.916Z,101535.86
2018-10-02T06:41:17.344Z,101536.42
2018-10-02T06:42:22.363Z,101536.17
2018-10-02T06:43:27.310Z,101525.67
2018-10-02T06:44:32.380Z,101523.59
2018-10-02T06:45:36.716Z,101529.28
2018-10-02T06:46:41.835Z,101529.66
2018-10-02T06:47:45.838Z,101532.78
2018-10-02T06:48:51.697Z,101524.82
2018-10-02T06:49:56.063Z,101523.37
2018-10-02T06:51:00.300Z,101516.63
2018-10-02T06:52:04.660Z,101512.17
2018-10-02T06:53:08.666Z,101519.07
2018-10-02T06:54:12.826Z,101521.60
2018-10-02T06:55:16.962Z,101525.49
2018-10-02T06:56:21.925Z,101522.36
2018-10-02T06:57:26.005Z,101522.36
2018-10-02T06:58:32.247Z,101521.38
2018-10-02T06:59:36.666Z,101523.09
2018-10-02T07:00:40.854Z,101521.77
2018-10-02T07:01:44.861Z,101515.88
2018-10-02T07:02:49.504Z,101517.94
2018-10-02T07:03:53.713Z,101509.49
2018-10-02T07:04:57.848Z,101513.35
2018-10-02T07:06:03.052Z,101508.41
2018-10-02T07:07:07.195Z,101506.14
2018-10-02T07:08:11.890Z,101509.91
2018-10-02T07:09:16.213Z,101492.98
2018-10-02T07:10:21.468Z,101503.04
2018-10-02T07:11:26.866Z,101499.41
2018-10-02T07:12:31.034Z,101497.13
2018-10-02T07:13:36.357Z,101501.11
2018-10-02T07:14:40.644Z,101491.34
2018-10-02T07:15:44.641Z,101495.23
2018-10-02T07:16:48.994Z,101493.89
2018-10-02T07:17:53.058Z,101491.59
2018-10-02T07:18:57.340Z,101492.91
2018-10-02T07:20:02.213Z,101486.65
2018-10-02T07:21:06.884Z,101486.65
2018-10-02T07:22:11.413Z,101489.30
2018-10-02T07:23:16.923Z,101483.99
2018-10-02T07:24:21.700Z,101481.72
2018-10-02T07:25:25.833Z,101481.48
2018-10-02T07:26:31.045Z,101468.67
2018-10-02T07:27:35.188Z,101468.20
2018-10-02T07:28:39.325Z,101466.27
2018-10-02T07:29:43.481Z,101468.33
2018-10-02T07:30:48.714Z,101464.23
2018-10-02T07:31:53.584Z,101469.45
2018-10-02T07:32:57.854Z,101462.69
2018-10-02T07:34:02.721Z,101452.43
2018-10-02T07:35:07.983Z,101458.95
2018-10-02T07:36:12.175Z,101461.50
2018-10-02T07:37:16.246Z,101461.88
2018-10-02T07:38:20.476Z,101453.41
2018-10-02T07:39:24.660Z,101455.11
2018-10-02T07:40:28.833Z,101454.63
2018-10-02T07:41:34.037Z,101451.50
2018-10-02T07:42:38.513Z,101451.50
2018-10-02T07:43:43.367Z,101452.70
2018-10-02T07:44:49.241Z,101450.52
2018-10-02T07:45:53.666Z,101458.87
2018-10-02T07:46:58.380Z,101460.67
2018-10-02T07:48:03.511Z,101465.13
2018-10-02T07:49:07.558Z,101474.09
2018-10-02T07:50:12.878Z,101482.92
2018-10-02T07:51:16.963Z,101481.69
2018-10-02T07:52:21.174Z,101484.48
2018-10-02T07:53:26.978Z,101491.13
2018-10-02T07:54:31.677Z,101484.95
2018-10-02T07:55:36.521Z,101489.66
2018-10-02T07:56:40.659Z,101483.02
2018-10-02T07:57:44.633Z,101475.42
2018-10-02T07:58:48.793Z,101483.74
2018-10-02T07:59:53.535Z,101477.00
2018-10-02T08:00:59.550Z,101474.25
2018-10-02T08:02:03.765Z,101477.25
2018-10-02T08:03:08.157Z,101473.64
2018-10-02T08:04:12.249Z,101469.65
2018-10-02T08:05:16.525Z,101474.97
2018-10-02T08:06:20.492Z,101475.44
2018-10-02T08:07:26.398Z,101481.48
2018-10-02T08:08:30.523Z,101490.69
2018-10-02T08:09:35.891Z,101481.29
2018-10-02T08:10:40.393Z,101483.81
2018-10-02T08:11:44.666Z,101481.16
2018-10-02T08:12:48.691Z,101481.53
2018-10-02T08:13:54.742Z,101483.34
2018-10-02T08:14:58.961Z,101480.20
2018-10-02T08:16:05.877Z,101485.87
2018-10-02T08:17:10.461Z,101483.59
2018-10-02T08:18:15.238Z,101484.44
2018-10-02T08:19:19.388Z,101485.67
2018-10-02T08:20:23.439Z,101480.59
2018-10-02T08:21:28.945Z,101484.45
2018-10-02T08:22:32.988Z,101476.14
2018-10-02T08:23:38.244Z,101471.64
2018-10-02T08:24:42.424Z,101469.83
2018-10-02T08:25:48.290Z,101465.75
2018-10-02T08:26:52.638Z,101468.27
2018-10-02T08:27:57.668Z,101465.98
2018-10-02T08:29:08.090Z,101461.39
2018-10-02T08:30:12.390Z,101465.28
2018-10-02T08:31:16.370Z,101463.48
2018-10-02T08:32:20.626Z,101466.14
2018-10-02T08:33:24.775Z,101469.27
2018-10-02T08:34:29.211Z,101473.73
2018-10-02T08:35:33.620Z,101474.83
2018-10-02T08:36:37.761Z,101471.22
2018-10-02T08:37:43.352Z,101474.98
2018-10-02T08:38:47.566Z,101466.39
2018-10-02T08:39:51.861Z,101469.33
2018-10-02T08:40:55.908Z,101463.87
2018-10-02T08:42:00.172Z,101463.64
2018-10-02T08:43:04.264Z,101469.34
2018-10-02T08:44:08.948Z,101463.41
2018-10-02T08:45:14.008Z,101466.07
2018-10-02T08:46:18.310Z,101466.83
2018-10-02T08:47:22.381Z,101464.50
2018-10-02T08:48:26.540Z,101471.91
2018-10-02T08:49:30.905Z,101464.64
2018-10-02T08:50:35.287Z,101466.35
2018-10-02T08:51:39.520Z,101468.41
2018-10-02T08:52:43.656Z,101467.83
2018-10-02T08:53:48.061Z,101463.22
2018-10-02T08:54:52.737Z,101466.26
2018-10-02T08:55:57.372Z,101464.41
2018-10-02T08:57:02.689Z,101464.69
2018-10-02T08:58:06.885Z,101465.41
2018-10-02T08:59:11.873Z,101465.31
2018-10-02T09:00:16.144Z,101460.80
2018-10-02T09:01:20.177Z,101464.70
2018-10-02T09:02:24.394Z,101465.17
2018-10-02T09:03:28.640Z,101462.52
2018-10-02T09:04:32.791Z,101458.42
2018-10-02T09:05:36.930Z,101456.23
2018-10-02T09:06:41.202Z,101455.76
2018-10-02T09:07:45.268Z,101462.03
2018-10-02T09:08:49.559Z,101459.85
2018-10-02T09:09:54.853Z,101466.12
2018-10-02T09:10:58.945Z,101463.70
2018-10-02T09:12:03.282Z,101462.61
2018-10-02T09:13:14.001Z,101476.91
2018-10-02T09:14:18.104Z,101469.88
2018-10-02T09:15:22.364Z,101468.16
2018-10-02T09:16:26.836Z,101461.89
2018-10-02T09:17:31.863Z,101466.84
2018-10-02T09:18:36.222Z,101458.52
2018-10-02T09:19:40.256Z,101457.28
2018-10-02T09:20:44.648Z,101459.70
2018-10-02T09:21:48.700Z,101461.27
2018-10-02T09:22:53.731Z,101457.52
2018-10-02T09:23:58.692Z,101455.91
2018-10-02T09:25:02.942Z,101456.41
2018-10-02T09:26:07.039Z,101454.33
2018-10-02T09:27:11.235Z,101459.17
2018-10-02T09:28:16.539Z,101463.40
2018-10-02T09:29:21.715Z,101453.61
2018-10-02T09:31:34.889Z,101452.86
2018-10-02T09:32:45.772Z,101450.67
2018-10-02T09:33:56.172Z,101450.18
2018-10-02T09:35:06.040Z,101451.36
2018-10-02T09:36:16.408Z,101448.33
2018-10-02T09:37:26.114Z,101450.27
2018-10-02T09:38:35.583Z,101450.87
2018-10-02T09:39:44.954Z,101447.84
2018-10-02T09:40:55.166Z,101451.11
2018-10-02T09:42:05.808Z,101450.25
2018-10-02T09:43:15.473Z,101444.08
2018-10-02T09:44:19.561Z,101440.57
2018-10-02T09:45:23.705Z,101441.66
2018-10-02T09:46:28.191Z,101439.57
2018-10-02T09:47:33.766Z,101440.08
2018-10-02T09:48:37.903Z,101435.23
2018-10-02T09:49:43.205Z,101442.23
2018-10-02T09:50:47.266Z,101440.90
2018-10-02T09:51:52.741Z,101442.23
2018-10-02T09:52:56.757Z,101439.95
2018-10-02T09:54:00.976Z,101440.90
2018-10-02T09:55:05.883Z,101431.58
2018-10-02T09:56:10.776Z,101442.73
2018-10-02T09:57:15.050Z,101447.92
2018-10-02T09:58:19.185Z,101441.27
2018-10-02T09:59:24.041Z,101443.56
2018-10-02T10:00:33.497Z,101442.23
2018-10-02T10:01:43.014Z,101444.41
2018-10-02T10:02:51.313Z,101440.90
2018-10-02T10:03:55.447Z,101435.23
2018-10-02T10:04:59.860Z,101441.50
2018-10-02T10:06:04.024Z,101445.02
2018-10-02T10:07:08.178Z,101432.20
2018-10-02T10:08:12.326Z,101434.25
2018-10-02T10:09:16.453Z,101434.77
2018-10-02T10:10:21.298Z,101428.22
2018-10-02T10:12:46.379Z,101430.64
2018-10-02T10:13:50.621Z,101426.66
2018-10-02T10:14:54.801Z,101435.23
2018-10-02T10:16:01.537Z,101431.25
2018-10-02T10:17:05.841Z,101432.58
2018-10-02T10:18:10.496Z,101430.02
2018-10-02T10:19:14.994Z,101434.39
2018-10-02T10:20:19.126Z,101420.34
2018-10-02T10:21:23.290Z,101416.00
2018-10-02T10:22:27.372Z,101416.35
2018-10-02T10:23:31.416Z,101418.53
2018-10-02T10:24:35.621Z,101416.11
2018-10-02T10:25:39.765Z,101413.10
2018-10-02T10:26:43.940Z,101417.67
2018-10-02T10:27:48.118Z,101412.48
2018-10-02T10:28:54.061Z,101409.92
2018-10-02T10:29:58.750Z,101406.06
2018-10-02T10:31:02.884Z,101411.48
2018-10-02T10:32:07.337Z,101406.64
2018-10-02T10:33:17.850Z,101399.89
2018-10-02T10:34:21.950Z,101398.19
2018-10-02T10:35:26.228Z,101403.51
2018-10-02T10:36:30.933Z,101405.55
2018-10-02T10:37:35.084Z,101403.28
2018-10-02T10:38:39.186Z,101402.42
2018-10-02T10:39:43.352Z,101397.96
2018-10-02T10:40:47.615Z,101399.19
2018-10-02T10:41:51.735Z,101398.58
2018-10-02T10:42:55.873Z,101394.49
2018-10-02T10:44:01.728Z,101401.14
2018-10-02T10:45:07.297Z,101409.45
2018-10-02T10:46:11.992Z,101398.48
2018-10-02T10:47:16.079Z,101394.49
2018-10-02T10:48:20.214Z,101396.64
2018-10-02T10:49:24.857Z,101395.22
2018-10-02T10:50:29.062Z,101387.62
2018-10-02T10:51:33.231Z,101395.46
2018-10-02T10:52:37.563Z,101392.70
2018-10-02T10:53:41.607Z,101400.07
2018-10-02T10:54:57.405Z,101396.80
2018-10-02T10:56:01.587Z,101393.94
2018-10-02T10:57:06.357Z,101387.30
2018-10-02T10:58:11.240Z,101385.96
2018-10-02T10:59:15.892Z,101388.97
2018-10-02T11:00:20.612Z,101389.44
2018-10-02T11:01:24.706Z,101382.22
2018-10-02T11:02:29.933Z,101388.73
2018-10-02T11:03:34.140Z,101374.00
2018-10-02T11:04:39.018Z,101375.58
2018-10-02T11:05:43.103Z,101377.86
2018-10-02T11:06:47.306Z,101379.56
2018-10-02T11:07:52.372Z,101372.92
2018-10-02T11:08:56.532Z,101377.15
2018-10-02T11:10:00.618Z,101377.90
2018-10-02T11:11:05.314Z,101376.44
2018-10-02T11:12:09.492Z,101378.52
2018-10-02T11:13:13.725Z,101381.52
2018-10-02T11:14:20.086Z,101381.89
2018-10-02T11:15:25.252Z,101376.81
2018-10-02T11:16:30.030Z,101385.41
2018-10-02T11:17:34.275Z,101376.85
2018-10-02T11:18:38.587Z,101381.55
2018-10-02T11:19:42.782Z,101384.45
2018-10-02T11:20:48.621Z,101386.53
2018-10-02T11:21:54.172Z,101391.34
2018-10-02T11:22:58.389Z,101382.55
2018-10-02T11:24:03.566Z,101389.20
2018-10-02T11:25:07.760Z,101392.20
2018-10-02T11:26:11.987Z,101388.45
2018-10-02T11:27:16.173Z,101392.34
2018-10-02T11:28:23.320Z,101395.23
2018-10-02T11:29:27.833Z,101388.11
2018-10-02T11:30:32.067Z,101391.62
2018-10-02T11:31:36.731Z,101395.13
2018-10-02T11:32:41.509Z,101391.25
2018-10-02T11:33:45.619Z,101395.23
2018-10-02T11:34:49.779Z,101391.72
2018-10-02T11:35:54.024Z,101385.58
2018-10-02T11:36:58.190Z,101385.58
2018-10-02T11:38:02.357Z,101383.64
2018-10-02T11:39:07.007Z,101378.31
2018-10-02T11:40:11.179Z,101379.41
2018-10-02T11:41:15.246Z,101371.80
2018-10-02T11:42:19.383Z,101382.55
2018-10-02T11:43:23.577Z,101374.94
2018-10-02T11:44:27.715Z,101368.52
2018-10-02T11:45:32.338Z,101368.31
2018-10-02T11:46:36.507Z,101365.55
2018-10-02T11:47:40.612Z,101362.88
2018-10-02T11:48:44.954Z,101359.27
2018-10-02T11:49:49.222Z,101361.31
2018-10-02T11:50:53.300Z,101358.55
2018-10-02T11:51:57.424Z,101360.59
2018-10-02T11:53:01.592Z,101349.09
2018-10-02T11:54:05.665Z,101349.33
2018-10-02T11:55:09.769Z,101348.27
2018-10-02T11:56:14.845Z,101358.39
2018-10-02T11:57:19.747Z,101352.97
2018-10-02T11:58:23.873Z,101354.05
2018-10-02T11:59:28.037Z,101354.29
2018-10-02T12:00:32.343Z,101349.70
2018-10-02T12:01:36.390Z,101344.14
2018-10-02T12:02:40.525Z,101350.55
2018-10-02T12:03:44.586Z,101342.08
2018-10-02T12:04:48.818Z,101342.08
2018-10-02T12:05:53.031Z,101338.09
2018-10-02T12:06:57.959Z,101341.56
2018-10-02T12:08:02.251Z,101340.50
2018-10-02T12:09:07.760Z,101341.69
2018-10-02T12:10:11.811Z,101338.92
2018-10-02T12:11:16.554Z,101336.27
2018-10-02T12:12:20.872Z,101338.30
2018-10-02T12:13:26.265Z,101340.97
2018-10-02T12:14:30.374Z,101342.67
2018-10-02T12:15:36.806Z,101340.38
2018-10-02T12:16:41.925Z,101334.29
2018-10-02T12:17:46.867Z,101332.85
2018-10-02T12:18:52.164Z,101347.25
2018-10-02T12:19:57.282Z,101338.53
2018-10-02T12:21:01.737Z,101331.77
2018-10-02T12:22:06.344Z,101328.11
2018-10-02T12:23:10.718Z,101336.70
2018-10-02T12:24:14.880Z,101334.03
2018-10-02T12:25:19.119Z,101329.56